sensor_id;sensor_type;location;lat;lon;timestamp;temperature;humidity
16315;DHT22;8266;52.150;4.768;2022-07-11T00:02:22;21.70;99.90
16315;DHT22;8266;52.150;4.768;2022-07-11T00:04:50;21.70;99.90
16315;DHT22;8266;52.150;4.768;2022-07-11T00:07:17;21.70;99.90
16315;DHT22;8266;52.150;4.768;2022-07-11T00:09:44;21.70;99.90
16315;DHT22;8266;52.150;4.768;2022-07-11T00:12:12;21.70;99.90
16315;DHT22;8266;52.150;4.768;2022-07-11T00:14:39;21.70;99.90
16315;DHT22;8266;52.150;4.768;2022-07-11T00:17:06;21.60;99.90
16315;DHT22;8266;52.150;4.768;2022-07-11T00:19:36;21.60;99.90
16315;DHT22;8266;52.150;4.768;2022-07-11T00:22:04;21.60;99.90
16315;DHT22;8266;52.150;4.768;2022-07-11T00:24:31;21.60;99.90
16315;DHT22;8266;52.150;4.768;2022-07-11T00:26:58;21.50;99.90
16315;DHT22;8266;52.150;4.768;2022-07-11T00:29:25;21.50;99.90
16315;DHT22;8266;52.150;4.768;2022-07-11T00:31:54;21.50;99.90
16315;DHT22;8266;52.150;4.768;2022-07-11T00:34:21;21.50;99.90
16315;DHT22;8266;52.150;4.768;2022-07-11T00:36:50;21.40;99.90
16315;DHT22;8266;52.150;4.768;2022-07-11T00:39:17;21.40;99.90
16315;DHT22;8266;52.150;4.768;2022-07-11T00:41:44;21.40;99.90
16315;DHT22;8266;52.150;4.768;2022-07-11T00:44:12;21.40;99.90
16315;DHT22;8266;52.150;4.768;2022-07-11T00:46:39;21.40;99.90
16315;DHT22;8266;52.150;4.768;2022-07-11T00:49:06;21.40;99.90
16315;DHT22;8266;52.150;4.768;2022-07-11T00:51:33;21.40;99.90
16315;DHT22;8266;52.150;4.768;2022-07-11T00:54:02;21.40;99.90
16315;DHT22;8266;52.150;4.768;2022-07-11T00:56:29;21.40;99.90
16315;DHT22;8266;52.150;4.768;2022-07-11T00:58:58;21.40;99.90
16315;DHT22;8266;52.150;4.768;2022-07-11T01:01:25;21.40;99.90
16315;DHT22;8266;52.150;4.768;2022-07-11T01:03:52;21.40;99.90
16315;DHT22;8266;52.150;4.768;2022-07-11T01:06:20;21.40;99.90
16315;DHT22;8266;52.150;4.768;2022-07-11T01:08:47;21.40;99.90
16315;DHT22;8266;52.150;4.768;2022-07-11T01:11:20;21.40;99.90
16315;DHT22;8266;52.150;4.768;2022-07-11T01:13:48;21.40;99.90
16315;DHT22;8266;52.150;4.768;2022-07-11T01:16:17;21.40;99.90
16315;DHT22;8266;52.150;4.768;2022-07-11T01:18:45;21.30;99.90
16315;DHT22;8266;52.150;4.768;2022-07-11T01:21:22;21.30;99.90
16315;DHT22;8266;52.150;4.768;2022-07-11T01:23:52;21.30;99.90
16315;DHT22;8266;52.150;4.768;2022-07-11T01:26:20;21.20;99.90
16315;DHT22;8266;52.150;4.768;2022-07-11T01:28:47;21.20;99.90
16315;DHT22;8266;52.150;4.768;2022-07-11T01:31:14;21.20;99.90
16315;DHT22;8266;52.150;4.768;2022-07-11T01:33:41;21.10;99.90
16315;DHT22;8266;52.150;4.768;2022-07-11T01:36:08;21.10;99.90
16315;DHT22;8266;52.150;4.768;2022-07-11T01:38:35;21.10;99.90
16315;DHT22;8266;52.150;4.768;2022-07-11T01:41:04;21.10;99.90
16315;DHT22;8266;52.150;4.768;2022-07-11T01:43:31;21.10;99.90
16315;DHT22;8266;52.150;4.768;2022-07-11T01:45:58;21.00;99.90
16315;DHT22;8266;52.150;4.768;2022-07-11T01:48:25;21.00;99.90
16315;DHT22;8266;52.150;4.768;2022-07-11T01:50:53;21.00;99.90
16315;DHT22;8266;52.150;4.768;2022-07-11T01:53:20;21.00;99.90
16315;DHT22;8266;52.150;4.768;2022-07-11T01:55:47;21.00;99.90
16315;DHT22;8266;52.150;4.768;2022-07-11T01:58:16;21.00;99.90
16315;DHT22;8266;52.150;4.768;2022-07-11T02:00:43;21.00;99.90
16315;DHT22;8266;52.150;4.768;2022-07-11T02:03:10;21.00;99.90
16315;DHT22;8266;52.150;4.768;2022-07-11T02:05:37;21.00;99.90
16315;DHT22;8266;52.150;4.768;2022-07-11T02:08:06;21.00;99.90
16315;DHT22;8266;52.150;4.768;2022-07-11T02:10:41;21.00;99.90
16315;DHT22;8266;52.150;4.768;2022-07-11T02:13:09;21.00;99.90
16315;DHT22;8266;52.150;4.768;2022-07-11T02:15:38;20.90;99.90
16315;DHT22;8266;52.150;4.768;2022-07-11T02:18:05;20.90;99.90
16315;DHT22;8266;52.150;4.768;2022-07-11T02:20:32;20.90;99.90
16315;DHT22;8266;52.150;4.768;2022-07-11T02:23:00;20.90;99.90
16315;DHT22;8266;52.150;4.768;2022-07-11T02:25:27;20.90;99.90
16315;DHT22;8266;52.150;4.768;2022-07-11T02:27:54;20.90;99.90
16315;DHT22;8266;52.150;4.768;2022-07-11T02:30:21;20.90;99.90
16315;DHT22;8266;52.150;4.768;2022-07-11T02:32:50;20.90;99.90
16315;DHT22;8266;52.150;4.768;2022-07-11T02:35:18;20.90;99.90
16315;DHT22;8266;52.150;4.768;2022-07-11T02:37:45;20.90;99.90
16315;DHT22;8266;52.150;4.768;2022-07-11T02:40:12;20.90;99.90
16315;DHT22;8266;52.150;4.768;2022-07-11T02:42:39;20.90;99.90
16315;DHT22;8266;52.150;4.768;2022-07-11T02:45:07;20.90;99.90
16315;DHT22;8266;52.150;4.768;2022-07-11T02:47:36;20.90;99.90
16315;DHT22;8266;52.150;4.768;2022-07-11T02:50:07;20.90;99.90
16315;DHT22;8266;52.150;4.768;2022-07-11T02:52:34;20.90;99.90
16315;DHT22;8266;52.150;4.768;2022-07-11T02:55:02;21.00;99.90
16315;DHT22;8266;52.150;4.768;2022-07-11T02:57:29;21.00;99.90
16315;DHT22;8266;52.150;4.768;2022-07-11T02:59:56;21.00;99.90
16315;DHT22;8266;52.150;4.768;2022-07-11T03:02:23;21.00;99.90
16315;DHT22;8266;52.150;4.768;2022-07-11T03:04:50;21.10;99.90
16315;DHT22;8266;52.150;4.768;2022-07-11T03:07:18;21.10;99.90
16315;DHT22;8266;52.150;4.768;2022-07-11T03:09:45;21.10;99.90
16315;DHT22;8266;52.150;4.768;2022-07-11T03:12:12;21.10;99.90
16315;DHT22;8266;52.150;4.768;2022-07-11T03:14:39;21.10;99.90
16315;DHT22;8266;52.150;4.768;2022-07-11T03:17:06;21.10;99.90
16315;DHT22;8266;52.150;4.768;2022-07-11T03:19:33;21.20;99.90
16315;DHT22;8266;52.150;4.768;2022-07-11T03:22:00;21.20;99.90
16315;DHT22;8266;52.150;4.768;2022-07-11T03:24:28;21.20;99.90
16315;DHT22;8266;52.150;4.768;2022-07-11T03:26:55;21.20;99.90
16315;DHT22;8266;52.150;4.768;2022-07-11T03:29:22;21.20;99.90
16315;DHT22;8266;52.150;4.768;2022-07-11T03:31:49;21.20;99.90
16315;DHT22;8266;52.150;4.768;2022-07-11T03:34:16;21.20;99.90
16315;DHT22;8266;52.150;4.768;2022-07-11T03:36:43;21.20;99.90
16315;DHT22;8266;52.150;4.768;2022-07-11T03:39:12;21.30;99.90
16315;DHT22;8266;52.150;4.768;2022-07-11T03:41:40;21.30;99.90
16315;DHT22;8266;52.150;4.768;2022-07-11T03:44:07;21.30;99.90
16315;DHT22;8266;52.150;4.768;2022-07-11T03:46:34;21.30;99.90
16315;DHT22;8266;52.150;4.768;2022-07-11T03:49:02;21.20;99.90
16315;DHT22;8266;52.150;4.768;2022-07-11T03:52:21;21.30;99.90
16315;DHT22;8266;52.150;4.768;2022-07-11T03:55:40;21.30;99.90
16315;DHT22;8266;52.150;4.768;2022-07-11T06:05:53;20.80;99.90
16315;DHT22;8266;52.150;4.768;2022-07-11T06:09:01;20.80;99.90
16315;DHT22;8266;52.150;4.768;2022-07-11T06:56:06;20.70;99.90
16315;DHT22;8266;52.150;4.768;2022-07-11T06:59:29;20.80;99.90
16315;DHT22;8266;52.150;4.768;2022-07-11T07:45:03;20.90;99.90
16315;DHT22;8266;52.150;4.768;2022-07-11T07:47:34;20.90;99.90
16315;DHT22;8266;52.150;4.768;2022-07-11T07:50:06;21.00;99.90
16315;DHT22;8266;52.150;4.768;2022-07-11T14:26:28;28.90;99.00
16315;DHT22;8266;52.150;4.768;2022-07-11T14:53:18;29.70;97.70
16315;DHT22;8266;52.150;4.768;2022-07-11T14:56:10;29.80;97.90
16315;DHT22;8266;52.150;4.768;2022-07-11T14:58:55;29.80;97.90
16315;DHT22;8266;52.150;4.768;2022-07-11T15:01:25;29.90;98.30
16315;DHT22;8266;52.150;4.768;2022-07-11T15:04:01;30.00;98.00
16315;DHT22;8266;52.150;4.768;2022-07-11T15:06:42;30.10;97.70
16315;DHT22;8266;52.150;4.768;2022-07-11T15:09:55;30.10;97.30
16315;DHT22;8266;52.150;4.768;2022-07-11T15:12:52;30.10;97.20
16315;DHT22;8266;52.150;4.768;2022-07-11T15:15:28;30.10;96.80
16315;DHT22;8266;52.150;4.768;2022-07-11T15:18:19;30.00;96.80
16315;DHT22;8266;52.150;4.768;2022-07-11T15:20:52;30.00;96.50
16315;DHT22;8266;52.150;4.768;2022-07-11T15:23:32;30.00;96.40
16315;DHT22;8266;52.150;4.768;2022-07-11T15:26:05;29.80;96.30
16315;DHT22;8266;52.150;4.768;2022-07-11T15:28:53;29.70;96.10
16315;DHT22;8266;52.150;4.768;2022-07-11T15:31:35;29.70;96.00
16315;DHT22;8266;52.150;4.768;2022-07-11T15:48:12;29.70;97.50
16315;DHT22;8266;52.150;4.768;2022-07-11T15:51:16;29.80;95.70
16315;DHT22;8266;52.150;4.768;2022-07-11T15:54:26;30.00;96.10
16315;DHT22;8266;52.150;4.768;2022-07-11T16:00:30;30.00;95.50
16315;DHT22;8266;52.150;4.768;2022-07-11T16:03:19;30.10;96.00
16315;DHT22;8266;52.150;4.768;2022-07-11T16:05:51;30.10;95.40
16315;DHT22;8266;52.150;4.768;2022-07-11T16:08:33;30.10;94.90
16315;DHT22;8266;52.150;4.768;2022-07-11T16:11:02;30.00;94.50
16315;DHT22;8266;52.150;4.768;2022-07-11T16:16:43;29.80;94.70
16315;DHT22;8266;52.150;4.768;2022-07-11T16:20:10;29.70;94.90
16315;DHT22;8266;52.150;4.768;2022-07-11T16:22:28;29.60;95.50
16315;DHT22;8266;52.150;4.768;2022-07-11T16:25:21;29.60;95.90
16315;DHT22;8266;52.150;4.768;2022-07-11T16:27:55;29.60;95.60
16315;DHT22;8266;52.150;4.768;2022-07-11T16:30:41;29.70;95.90
16315;DHT22;8266;52.150;4.768;2022-07-11T16:39:55;29.80;95.80
16315;DHT22;8266;52.150;4.768;2022-07-11T16:45:50;29.90;95.60
16315;DHT22;8266;52.150;4.768;2022-07-11T16:48:35;29.90;95.50
16315;DHT22;8266;52.150;4.768;2022-07-11T16:51:31;29.80;95.50
16315;DHT22;8266;52.150;4.768;2022-07-11T16:54:04;29.90;95.40
16315;DHT22;8266;52.150;4.768;2022-07-11T16:56:35;29.90;95.70
16315;DHT22;8266;52.150;4.768;2022-07-11T16:59:34;30.00;95.70
16315;DHT22;8266;52.150;4.768;2022-07-11T17:02:27;30.00;95.60
16315;DHT22;8266;52.150;4.768;2022-07-11T17:09:05;29.80;95.40
16315;DHT22;8266;52.150;4.768;2022-07-11T17:25:30;29.20;96.00
16315;DHT22;8266;52.150;4.768;2022-07-11T17:28:28;29.00;96.20
16315;DHT22;8266;52.150;4.768;2022-07-11T17:31:27;28.90;96.30
16315;DHT22;8266;52.150;4.768;2022-07-11T18:53:23;27.00;99.00
16315;DHT22;8266;52.150;4.768;2022-07-11T19:02:57;26.60;99.70
16315;DHT22;8266;52.150;4.768;2022-07-11T19:12:17;26.30;99.90
16315;DHT22;8266;52.150;4.768;2022-07-11T19:15:27;26.20;99.90
16315;DHT22;8266;52.150;4.768;2022-07-11T19:21:37;26.00;99.90
16315;DHT22;8266;52.150;4.768;2022-07-11T19:24:20;25.80;99.90
16315;DHT22;8266;52.150;4.768;2022-07-11T19:27:31;25.80;99.90
16315;DHT22;8266;52.150;4.768;2022-07-11T19:30:13;25.60;99.90
16315;DHT22;8266;52.150;4.768;2022-07-11T19:33:27;25.50;99.90
16315;DHT22;8266;52.150;4.768;2022-07-11T19:39:27;25.40;99.90
16315;DHT22;8266;52.150;4.768;2022-07-11T19:42:24;25.30;99.90
16315;DHT22;8266;52.150;4.768;2022-07-11T19:54:22;25.00;99.90
16315;DHT22;8266;52.150;4.768;2022-07-11T19:57:10;25.00;99.90
16315;DHT22;8266;52.150;4.768;2022-07-11T20:00:12;24.90;99.90
16315;DHT22;8266;52.150;4.768;2022-07-11T20:03:11;24.80;99.90
16315;DHT22;8266;52.150;4.768;2022-07-11T20:06:11;24.70;99.90
16315;DHT22;8266;52.150;4.768;2022-07-11T20:09:11;24.70;99.90
16315;DHT22;8266;52.150;4.768;2022-07-11T20:11:56;24.60;99.90
16315;DHT22;8266;52.150;4.768;2022-07-11T20:14:27;24.50;99.90
16315;DHT22;8266;52.150;4.768;2022-07-11T20:20:11;24.40;99.90
16315;DHT22;8266;52.150;4.768;2022-07-11T20:23:00;24.40;99.90
16315;DHT22;8266;52.150;4.768;2022-07-11T20:25:58;24.20;99.90
16315;DHT22;8266;52.150;4.768;2022-07-11T20:31:26;24.20;99.90
16315;DHT22;8266;52.150;4.768;2022-07-11T20:34:08;24.20;99.90
16315;DHT22;8266;52.150;4.768;2022-07-11T20:42:58;24.00;99.90
16315;DHT22;8266;52.150;4.768;2022-07-11T20:46:08;24.00;99.90
16315;DHT22;8266;52.150;4.768;2022-07-11T20:56:15;24.00;99.90
16315;DHT22;8266;52.150;4.768;2022-07-11T21:20:01;23.80;99.90
16315;DHT22;8266;52.150;4.768;2022-07-11T21:22:51;23.70;99.90
16315;DHT22;8266;52.150;4.768;2022-07-11T21:25:59;23.80;99.90
16315;DHT22;8266;52.150;4.768;2022-07-11T21:28:38;23.80;99.90
16315;DHT22;8266;52.150;4.768;2022-07-11T21:31:32;23.80;99.90
16315;DHT22;8266;52.150;4.768;2022-07-11T21:34:03;23.80;99.90
16315;DHT22;8266;52.150;4.768;2022-07-11T21:36:36;23.80;99.90
16315;DHT22;8266;52.150;4.768;2022-07-11T21:39:06;23.80;99.90
16315;DHT22;8266;52.150;4.768;2022-07-11T21:41:42;23.70;99.90
16315;DHT22;8266;52.150;4.768;2022-07-11T21:44:15;23.80;99.90
16315;DHT22;8266;52.150;4.768;2022-07-11T21:46:45;23.80;99.90
16315;DHT22;8266;52.150;4.768;2022-07-11T21:49:27;23.70;99.90
16315;DHT22;8266;52.150;4.768;2022-07-11T21:52:11;23.70;99.90
16315;DHT22;8266;52.150;4.768;2022-07-11T21:54:47;23.70;99.90
16315;DHT22;8266;52.150;4.768;2022-07-11T21:57:21;23.60;99.90
16315;DHT22;8266;52.150;4.768;2022-07-11T22:00:00;23.60;99.90
16315;DHT22;8266;52.150;4.768;2022-07-11T22:02:38;23.60;99.90
16315;DHT22;8266;52.150;4.768;2022-07-11T22:05:10;23.50;99.90
16315;DHT22;8266;52.150;4.768;2022-07-11T22:07:44;23.40;99.90
16315;DHT22;8266;52.150;4.768;2022-07-11T22:10:21;23.40;99.90
16315;DHT22;8266;52.150;4.768;2022-07-11T22:12:57;23.40;99.90
16315;DHT22;8266;52.150;4.768;2022-07-11T22:15:27;23.30;99.90
16315;DHT22;8266;52.150;4.768;2022-07-11T22:17:59;23.30;99.90
16315;DHT22;8266;52.150;4.768;2022-07-11T22:20:34;23.30;99.90
16315;DHT22;8266;52.150;4.768;2022-07-11T22:23:16;23.30;99.90
16315;DHT22;8266;52.150;4.768;2022-07-11T22:25:47;23.30;99.90
16315;DHT22;8266;52.150;4.768;2022-07-11T22:28:19;23.30;99.90
16315;DHT22;8266;52.150;4.768;2022-07-11T22:30:49;23.30;99.90
16315;DHT22;8266;52.150;4.768;2022-07-11T22:33:17;23.30;99.90
16315;DHT22;8266;52.150;4.768;2022-07-11T22:35:48;23.30;99.90
16315;DHT22;8266;52.150;4.768;2022-07-11T22:38:20;23.30;99.90
16315;DHT22;8266;52.150;4.768;2022-07-11T22:40:53;23.30;99.90
16315;DHT22;8266;52.150;4.768;2022-07-11T22:43:28;23.30;99.90
16315;DHT22;8266;52.150;4.768;2022-07-11T22:45:55;23.30;99.90
16315;DHT22;8266;52.150;4.768;2022-07-11T22:48:27;23.30;99.90
16315;DHT22;8266;52.150;4.768;2022-07-11T22:51:00;23.30;99.90
16315;DHT22;8266;52.150;4.768;2022-07-11T22:53:29;23.30;99.90
16315;DHT22;8266;52.150;4.768;2022-07-11T22:55:59;23.30;99.90
16315;DHT22;8266;52.150;4.768;2022-07-11T22:58:29;23.30;99.90
16315;DHT22;8266;52.150;4.768;2022-07-11T23:00:57;23.30;99.90
16315;DHT22;8266;52.150;4.768;2022-07-11T23:03:24;23.20;99.90
16315;DHT22;8266;52.150;4.768;2022-07-11T23:06:03;23.30;99.90
16315;DHT22;8266;52.150;4.768;2022-07-11T23:08:38;23.20;99.90
16315;DHT22;8266;52.150;4.768;2022-07-11T23:13:58;23.10;99.90
16315;DHT22;8266;52.150;4.768;2022-07-11T23:16:42;23.10;99.90
16315;DHT22;8266;52.150;4.768;2022-07-11T23:19:17;23.10;99.90
16315;DHT22;8266;52.150;4.768;2022-07-11T23:21:47;23.00;99.90
16315;DHT22;8266;52.150;4.768;2022-07-11T23:24:24;23.00;99.90
16315;DHT22;8266;52.150;4.768;2022-07-11T23:26:57;23.00;99.90
16315;DHT22;8266;52.150;4.768;2022-07-11T23:29:29;22.90;99.90
16315;DHT22;8266;52.150;4.768;2022-07-11T23:31:59;22.90;99.90
16315;DHT22;8266;52.150;4.768;2022-07-11T23:34:34;22.80;99.90
16315;DHT22;8266;52.150;4.768;2022-07-11T23:37:06;22.90;99.90
16315;DHT22;8266;52.150;4.768;2022-07-11T23:39:42;22.70;99.90
16315;DHT22;8266;52.150;4.768;2022-07-11T23:42:12;22.60;99.90
16315;DHT22;8266;52.150;4.768;2022-07-11T23:44:41;22.50;99.90
16315;DHT22;8266;52.150;4.768;2022-07-11T23:47:09;22.40;99.90
16315;DHT22;8266;52.150;4.768;2022-07-11T23:49:39;22.40;99.90
16315;DHT22;8266;52.150;4.768;2022-07-11T23:52:09;22.30;99.90
16315;DHT22;8266;52.150;4.768;2022-07-11T23:54:44;22.20;99.90
16315;DHT22;8266;52.150;4.768;2022-07-11T23:57:15;22.20;99.90
16315;DHT22;8266;52.150;4.768;2022-07-11T23:59:43;22.00;99.90
